sensor_id;sensor_type;location;lat;lon;timestamp;P1;durP1;ratioP1;P2;durP2;ratioP2
29686;SDS011;16599;47.078;15.536;2022-12-07T00:01:16;325.77;;;27.67;;
29686;SDS011;16599;47.078;15.536;2022-12-07T00:03:48;260.23;;;23.20;;
29686;SDS011;16599;47.078;15.536;2022-12-07T00:06:18;224.90;;;23.90;;
29686;SDS011;16599;47.078;15.536;2022-12-07T00:08:46;78.28;;;22.27;;
29686;SDS011;16599;47.078;15.536;2022-12-07T00:11:15;145.68;;;22.85;;
29686;SDS011;16599;47.078;15.536;2022-12-07T00:13:47;254.93;;;26.25;;
29686;SDS011;16599;47.078;15.536;2022-12-07T00:16:22;110.10;;;23.75;;
29686;SDS011;16599;47.078;15.536;2022-12-07T00:18:50;82.50;;;22.25;;
29686;SDS011;16599;47.078;15.536;2022-12-07T00:21:25;70.53;;;22.08;;
29686;SDS011;16599;47.078;15.536;2022-12-07T00:23:57;140.40;;;22.70;;
29686;SDS011;16599;47.078;15.536;2022-12-07T00:26:25;74.22;;;20.48;;
29686;SDS011;16599;47.078;15.536;2022-12-07T00:28:58;66.65;;;20.42;;
29686;SDS011;16599;47.078;15.536;2022-12-07T00:31:27;243.60;;;23.20;;
29686;SDS011;16599;47.078;15.536;2022-12-07T00:33:56;188.90;;;22.20;;
29686;SDS011;16599;47.078;15.536;2022-12-07T00:36:24;109.63;;;21.48;;
29686;SDS011;16599;47.078;15.536;2022-12-07T00:38:53;131.75;;;21.98;;
29686;SDS011;16599;47.078;15.536;2022-12-07T00:41:21;73.75;;;21.13;;
29686;SDS011;16599;47.078;15.536;2022-12-07T00:43:50;248.23;;;21.58;;
29686;SDS011;16599;47.078;15.536;2022-12-07T00:46:18;85.55;;;20.40;;
29686;SDS011;16599;47.078;15.536;2022-12-07T00:48:46;179.50;;;20.73;;
29686;SDS011;16599;47.078;15.536;2022-12-07T00:51:14;274.42;;;22.48;;
29686;SDS011;16599;47.078;15.536;2022-12-07T00:53:42;81.82;;;23.25;;
29686;SDS011;16599;47.078;15.536;2022-12-07T00:56:11;102.88;;;21.75;;
29686;SDS011;16599;47.078;15.536;2022-12-07T00:58:43;153.50;;;23.13;;
29686;SDS011;16599;47.078;15.536;2022-12-07T01:01:10;157.32;;;21.65;;
29686;SDS011;16599;47.078;15.536;2022-12-07T01:03:37;87.35;;;21.17;;
29686;SDS011;16599;47.078;15.536;2022-12-07T01:06:04;102.63;;;22.23;;
29686;SDS011;16599;47.078;15.536;2022-12-07T01:08:32;135.35;;;21.98;;
29686;SDS011;16599;47.078;15.536;2022-12-07T01:11:03;212.57;;;23.77;;
29686;SDS011;16599;47.078;15.536;2022-12-07T01:13:32;122.80;;;23.17;;
29686;SDS011;16599;47.078;15.536;2022-12-07T01:16:02;210.90;;;25.15;;
29686;SDS011;16599;47.078;15.536;2022-12-07T01:18:32;185.43;;;24.17;;
29686;SDS011;16599;47.078;15.536;2022-12-07T01:21:01;94.75;;;23.77;;
29686;SDS011;16599;47.078;15.536;2022-12-07T01:23:39;124.95;;;23.88;;
29686;SDS011;16599;47.078;15.536;2022-12-07T01:26:07;193.75;;;23.25;;
29686;SDS011;16599;47.078;15.536;2022-12-07T01:28:41;206.63;;;22.58;;
29686;SDS011;16599;47.078;15.536;2022-12-07T01:31:10;371.02;;;22.73;;
29686;SDS011;16599;47.078;15.536;2022-12-07T01:33:41;327.35;;;23.98;;
29686;SDS011;16599;47.078;15.536;2022-12-07T01:36:20;304.83;;;23.52;;
29686;SDS011;16599;47.078;15.536;2022-12-07T01:38:50;371.27;;;25.73;;
29686;SDS011;16599;47.078;15.536;2022-12-07T01:41:23;332.88;;;22.20;;
29686;SDS011;16599;47.078;15.536;2022-12-07T01:44:08;479.15;;;25.73;;
29686;SDS011;16599;47.078;15.536;2022-12-07T01:46:35;129.27;;;23.50;;
29686;SDS011;16599;47.078;15.536;2022-12-07T01:49:03;433.30;;;26.10;;
29686;SDS011;16599;47.078;15.536;2022-12-07T01:51:34;484.70;;;24.15;;
29686;SDS011;16599;47.078;15.536;2022-12-07T01:54:03;193.02;;;22.98;;
29686;SDS011;16599;47.078;15.536;2022-12-07T01:56:29;186.75;;;38.03;;
29686;SDS011;16599;47.078;15.536;2022-12-07T01:58:58;104.53;;;27.60;;
29686;SDS011;16599;47.078;15.536;2022-12-07T02:01:27;89.97;;;21.95;;
29686;SDS011;16599;47.078;15.536;2022-12-07T02:03:54;64.90;;;19.60;;
29686;SDS011;16599;47.078;15.536;2022-12-07T02:06:22;117.13;;;20.73;;
29686;SDS011;16599;47.078;15.536;2022-12-07T02:08:52;76.03;;;19.95;;
29686;SDS011;16599;47.078;15.536;2022-12-07T02:11:19;231.77;;;20.85;;
29686;SDS011;16599;47.078;15.536;2022-12-07T02:13:47;151.02;;;19.58;;
29686;SDS011;16599;47.078;15.536;2022-12-07T02:16:25;139.48;;;19.23;;
29686;SDS011;16599;47.078;15.536;2022-12-07T02:28:12;327.10;;;18.05;;
29686;SDS011;16599;47.078;15.536;2022-12-07T02:30:50;122.93;;;16.52;;
29686;SDS011;16599;47.078;15.536;2022-12-07T02:33:28;267.48;;;19.38;;
29686;SDS011;16599;47.078;15.536;2022-12-07T02:41:24;217.50;;;19.83;;
29686;SDS011;16599;47.078;15.536;2022-12-07T02:44:03;246.35;;;19.13;;
29686;SDS011;16599;47.078;15.536;2022-12-07T02:46:36;147.25;;;17.25;;
29686;SDS011;16599;47.078;15.536;2022-12-07T02:49:05;204.77;;;20.02;;
29686;SDS011;16599;47.078;15.536;2022-12-07T02:51:38;55.35;;;16.23;;
29686;SDS011;16599;47.078;15.536;2022-12-07T02:54:11;95.82;;;17.35;;
29686;SDS011;16599;47.078;15.536;2022-12-07T02:56:47;77.07;;;16.13;;
29686;SDS011;16599;47.078;15.536;2022-12-07T02:59:25;167.40;;;17.92;;
29686;SDS011;16599;47.078;15.536;2022-12-07T03:11:05;76.45;;;17.35;;
29686;SDS011;16599;47.078;15.536;2022-12-07T03:17:00;247.32;;;19.05;;
29686;SDS011;16599;47.078;15.536;2022-12-07T03:21:59;118.45;;;15.13;;
29686;SDS011;16599;47.078;15.536;2022-12-07T03:24:29;78.20;;;16.55;;
29686;SDS011;16599;47.078;15.536;2022-12-07T03:27:03;92.60;;;16.67;;
29686;SDS011;16599;47.078;15.536;2022-12-07T03:29:59;99.38;;;15.77;;
29686;SDS011;16599;47.078;15.536;2022-12-07T03:32:43;37.65;;;15.43;;
29686;SDS011;16599;47.078;15.536;2022-12-07T03:35:12;388.77;;;18.40;;
29686;SDS011;16599;47.078;15.536;2022-12-07T03:40:26;86.07;;;14.20;;
29686;SDS011;16599;47.078;15.536;2022-12-07T03:43:01;83.97;;;14.13;;
29686;SDS011;16599;47.078;15.536;2022-12-07T03:45:41;301.33;;;19.35;;
29686;SDS011;16599;47.078;15.536;2022-12-07T03:48:35;275.08;;;15.52;;
29686;SDS011;16599;47.078;15.536;2022-12-07T03:53:39;288.83;;;15.43;;
29686;SDS011;16599;47.078;15.536;2022-12-07T03:56:11;294.13;;;15.88;;
29686;SDS011;16599;47.078;15.536;2022-12-07T03:58:39;222.32;;;15.68;;
29686;SDS011;16599;47.078;15.536;2022-12-07T04:01:07;218.23;;;14.68;;
29686;SDS011;16599;47.078;15.536;2022-12-07T04:03:34;155.82;;;14.15;;
29686;SDS011;16599;47.078;15.536;2022-12-07T04:06:00;301.10;;;15.85;;
29686;SDS011;16599;47.078;15.536;2022-12-07T04:08:28;109.68;;;12.90;;
29686;SDS011;16599;47.078;15.536;2022-12-07T04:10:54;111.65;;;22.00;;
29686;SDS011;16599;47.078;15.536;2022-12-07T04:13:21;70.22;;;22.42;;
29686;SDS011;16599;47.078;15.536;2022-12-07T04:15:48;89.80;;;14.02;;
29686;SDS011;16599;47.078;15.536;2022-12-07T04:18:15;101.88;;;14.07;;
29686;SDS011;16599;47.078;15.536;2022-12-07T04:20:42;147.23;;;14.10;;
29686;SDS011;16599;47.078;15.536;2022-12-07T04:23:09;137.25;;;13.30;;
29686;SDS011;16599;47.078;15.536;2022-12-07T04:25:35;201.35;;;14.43;;
29686;SDS011;16599;47.078;15.536;2022-12-07T04:28:02;153.63;;;14.10;;
29686;SDS011;16599;47.078;15.536;2022-12-07T04:30:29;124.65;;;12.25;;
29686;SDS011;16599;47.078;15.536;2022-12-07T04:32:56;237.43;;;14.20;;
29686;SDS011;16599;47.078;15.536;2022-12-07T04:35:23;95.85;;;11.65;;
29686;SDS011;16599;47.078;15.536;2022-12-07T04:37:50;123.25;;;12.85;;
29686;SDS011;16599;47.078;15.536;2022-12-07T04:40:16;174.18;;;14.32;;
29686;SDS011;16599;47.078;15.536;2022-12-07T04:42:43;144.45;;;13.18;;
29686;SDS011;16599;47.078;15.536;2022-12-07T04:45:10;255.85;;;14.32;;
29686;SDS011;16599;47.078;15.536;2022-12-07T04:47:37;156.95;;;13.38;;
29686;SDS011;16599;47.078;15.536;2022-12-07T04:55:12;74.38;;;10.13;;
29686;SDS011;16599;47.078;15.536;2022-12-07T04:57:39;119.97;;;11.32;;
29686;SDS011;16599;47.078;15.536;2022-12-07T05:00:06;94.32;;;11.18;;
29686;SDS011;16599;47.078;15.536;2022-12-07T05:02:33;145.48;;;12.90;;
29686;SDS011;16599;47.078;15.536;2022-12-07T05:05:00;145.40;;;12.38;;
29686;SDS011;16599;47.078;15.536;2022-12-07T05:07:27;103.95;;;13.05;;
29686;SDS011;16599;47.078;15.536;2022-12-07T05:09:54;79.95;;;12.45;;
29686;SDS011;16599;47.078;15.536;2022-12-07T05:12:21;134.98;;;11.93;;
29686;SDS011;16599;47.078;15.536;2022-12-07T05:14:48;124.47;;;12.32;;
29686;SDS011;16599;47.078;15.536;2022-12-07T05:17:14;152.75;;;13.10;;
29686;SDS011;16599;47.078;15.536;2022-12-07T05:19:42;155.38;;;12.88;;
29686;SDS011;16599;47.078;15.536;2022-12-07T05:22:09;139.73;;;13.02;;
29686;SDS011;16599;47.078;15.536;2022-12-07T05:24:37;32.33;;;10.95;;
29686;SDS011;16599;47.078;15.536;2022-12-07T05:27:03;119.25;;;15.88;;
29686;SDS011;16599;47.078;15.536;2022-12-07T05:29:30;53.42;;;12.35;;
29686;SDS011;16599;47.078;15.536;2022-12-07T05:31:57;61.17;;;13.05;;
29686;SDS011;16599;47.078;15.536;2022-12-07T05:34:24;111.75;;;12.77;;
29686;SDS011;16599;47.078;15.536;2022-12-07T05:36:51;103.95;;;14.20;;
29686;SDS011;16599;47.078;15.536;2022-12-07T05:39:18;54.45;;;13.75;;
29686;SDS011;16599;47.078;15.536;2022-12-07T05:41:45;134.35;;;12.85;;
29686;SDS011;16599;47.078;15.536;2022-12-07T05:44:30;187.35;;;13.55;;
29686;SDS011;16599;47.078;15.536;2022-12-07T05:46:57;73.88;;;11.77;;
29686;SDS011;16599;47.078;15.536;2022-12-07T05:49:23;45.75;;;13.30;;
29686;SDS011;16599;47.078;15.536;2022-12-07T05:51:50;110.32;;;11.68;;
29686;SDS011;16599;47.078;15.536;2022-12-07T05:54:17;83.18;;;9.95;;
29686;SDS011;16599;47.078;15.536;2022-12-07T05:56:44;113.70;;;12.13;;
29686;SDS011;16599;47.078;15.536;2022-12-07T05:59:11;73.45;;;11.75;;
29686;SDS011;16599;47.078;15.536;2022-12-07T06:01:57;123.30;;;12.60;;
29686;SDS011;16599;47.078;15.536;2022-12-07T06:04:28;40.08;;;10.88;;
29686;SDS011;16599;47.078;15.536;2022-12-07T06:06:56;36.78;;;11.65;;
29686;SDS011;16599;47.078;15.536;2022-12-07T06:09:24;172.25;;;30.60;;
29686;SDS011;16599;47.078;15.536;2022-12-07T06:11:52;101.25;;;11.68;;
29686;SDS011;16599;47.078;15.536;2022-12-07T06:14:38;156.10;;;13.77;;
29686;SDS011;16599;47.078;15.536;2022-12-07T06:17:06;91.13;;;12.35;;
29686;SDS011;16599;47.078;15.536;2022-12-07T06:19:33;42.17;;;11.50;;
29686;SDS011;16599;47.078;15.536;2022-12-07T06:22:00;24.13;;;11.52;;
29686;SDS011;16599;47.078;15.536;2022-12-07T06:24:27;94.28;;;11.20;;
29686;SDS011;16599;47.078;15.536;2022-12-07T06:26:54;52.45;;;14.60;;
29686;SDS011;16599;47.078;15.536;2022-12-07T06:29:21;103.15;;;17.85;;
29686;SDS011;16599;47.078;15.536;2022-12-07T06:31:48;66.28;;;17.95;;
29686;SDS011;16599;47.078;15.536;2022-12-07T06:34:16;123.53;;;15.35;;
29686;SDS011;16599;47.078;15.536;2022-12-07T06:36:44;99.13;;;15.50;;
29686;SDS011;16599;47.078;15.536;2022-12-07T06:39:17;140.40;;;14.80;;
29686;SDS011;16599;47.078;15.536;2022-12-07T06:41:45;120.97;;;14.45;;
29686;SDS011;16599;47.078;15.536;2022-12-07T06:44:12;215.00;;;16.50;;
29686;SDS011;16599;47.078;15.536;2022-12-07T06:46:39;77.88;;;13.82;;
29686;SDS011;16599;47.078;15.536;2022-12-07T06:49:06;167.35;;;14.88;;
29686;SDS011;16599;47.078;15.536;2022-12-07T06:51:33;58.70;;;14.30;;
29686;SDS011;16599;47.078;15.536;2022-12-07T06:54:03;245.63;;;15.52;;
29686;SDS011;16599;47.078;15.536;2022-12-07T06:56:30;215.40;;;16.73;;
29686;SDS011;16599;47.078;15.536;2022-12-07T06:58:57;220.15;;;17.02;;
29686;SDS011;16599;47.078;15.536;2022-12-07T07:01:23;175.48;;;16.73;;
29686;SDS011;16599;47.078;15.536;2022-12-07T07:03:50;154.35;;;18.00;;
29686;SDS011;16599;47.078;15.536;2022-12-07T07:06:18;80.97;;;16.05;;
29686;SDS011;16599;47.078;15.536;2022-12-07T07:08:45;101.40;;;14.50;;
29686;SDS011;16599;47.078;15.536;2022-12-07T07:11:12;86.82;;;15.35;;
29686;SDS011;16599;47.078;15.536;2022-12-07T07:13:38;30.95;;;14.70;;
29686;SDS011;16599;47.078;15.536;2022-12-07T07:16:06;104.88;;;15.70;;
29686;SDS011;16599;47.078;15.536;2022-12-07T07:18:33;51.90;;;14.55;;
29686;SDS011;16599;47.078;15.536;2022-12-07T07:21:00;97.63;;;20.00;;
29686;SDS011;16599;47.078;15.536;2022-12-07T07:23:27;46.30;;;17.42;;
29686;SDS011;16599;47.078;15.536;2022-12-07T07:25:58;39.42;;;16.35;;
29686;SDS011;16599;47.078;15.536;2022-12-07T07:28:25;95.60;;;17.05;;
29686;SDS011;16599;47.078;15.536;2022-12-07T07:30:52;31.77;;;15.07;;
29686;SDS011;16599;47.078;15.536;2022-12-07T07:33:19;32.85;;;15.95;;
29686;SDS011;16599;47.078;15.536;2022-12-07T07:35:46;32.90;;;15.45;;
29686;SDS011;16599;47.078;15.536;2022-12-07T07:38:13;28.33;;;14.10;;
29686;SDS011;16599;47.078;15.536;2022-12-07T07:40:40;36.97;;;14.65;;
29686;SDS011;16599;47.078;15.536;2022-12-07T07:43:06;38.15;;;15.30;;
29686;SDS011;16599;47.078;15.536;2022-12-07T07:45:33;34.28;;;13.73;;
29686;SDS011;16599;47.078;15.536;2022-12-07T07:48:00;32.10;;;14.60;;
29686;SDS011;16599;47.078;15.536;2022-12-07T07:50:27;30.48;;;15.20;;
29686;SDS011;16599;47.078;15.536;2022-12-07T07:52:55;39.55;;;16.40;;
29686;SDS011;16599;47.078;15.536;2022-12-07T07:55:23;41.40;;;15.02;;
29686;SDS011;16599;47.078;15.536;2022-12-07T07:57:50;38.67;;;15.20;;
29686;SDS011;16599;47.078;15.536;2022-12-07T08:00:20;32.80;;;15.55;;
29686;SDS011;16599;47.078;15.536;2022-12-07T08:02:47;37.60;;;17.35;;
29686;SDS011;16599;47.078;15.536;2022-12-07T08:05:15;34.72;;;17.48;;
29686;SDS011;16599;47.078;15.536;2022-12-07T08:07:42;31.23;;;17.10;;
29686;SDS011;16599;47.078;15.536;2022-12-07T08:10:10;29.58;;;14.48;;
29686;SDS011;16599;47.078;15.536;2022-12-07T08:12:39;36.22;;;15.73;;
29686;SDS011;16599;47.078;15.536;2022-12-07T08:15:28;29.95;;;15.23;;
29686;SDS011;16599;47.078;15.536;2022-12-07T08:17:57;35.13;;;16.65;;
29686;SDS011;16599;47.078;15.536;2022-12-07T08:20:24;32.70;;;15.43;;
29686;SDS011;16599;47.078;15.536;2022-12-07T08:22:52;32.67;;;16.17;;
29686;SDS011;16599;47.078;15.536;2022-12-07T08:25:18;36.13;;;16.23;;
29686;SDS011;16599;47.078;15.536;2022-12-07T08:27:46;36.15;;;17.60;;
29686;SDS011;16599;47.078;15.536;2022-12-07T08:30:13;34.78;;;16.25;;
29686;SDS011;16599;47.078;15.536;2022-12-07T08:32:40;32.22;;;16.30;;
29686;SDS011;16599;47.078;15.536;2022-12-07T08:35:07;34.90;;;16.75;;
29686;SDS011;16599;47.078;15.536;2022-12-07T08:37:34;32.85;;;15.57;;
29686;SDS011;16599;47.078;15.536;2022-12-07T08:40:02;31.10;;;15.77;;
29686;SDS011;16599;47.078;15.536;2022-12-07T08:42:30;31.05;;;15.35;;
29686;SDS011;16599;47.078;15.536;2022-12-07T08:45:05;34.20;;;16.65;;
29686;SDS011;16599;47.078;15.536;2022-12-07T08:47:37;30.15;;;15.80;;
29686;SDS011;16599;47.078;15.536;2022-12-07T08:50:11;34.63;;;17.40;;
29686;SDS011;16599;47.078;15.536;2022-12-07T08:52:40;34.40;;;17.10;;
29686;SDS011;16599;47.078;15.536;2022-12-07T08:55:09;34.67;;;18.20;;
29686;SDS011;16599;47.078;15.536;2022-12-07T08:57:37;38.58;;;18.13;;
29686;SDS011;16599;47.078;15.536;2022-12-07T09:00:04;40.38;;;18.77;;
29686;SDS011;16599;47.078;15.536;2022-12-07T09:02:32;47.33;;;22.02;;
29686;SDS011;16599;47.078;15.536;2022-12-07T09:04:58;40.28;;;20.95;;
29686;SDS011;16599;47.078;15.536;2022-12-07T09:07:25;36.75;;;18.73;;
29686;SDS011;16599;47.078;15.536;2022-12-07T09:09:53;35.20;;;17.25;;
29686;SDS011;16599;47.078;15.536;2022-12-07T09:12:20;37.72;;;17.88;;
29686;SDS011;16599;47.078;15.536;2022-12-07T09:14:46;33.67;;;17.55;;
29686;SDS011;16599;47.078;15.536;2022-12-07T09:17:13;31.52;;;17.33;;
29686;SDS011;16599;47.078;15.536;2022-12-07T09:19:40;30.98;;;16.02;;
29686;SDS011;16599;47.078;15.536;2022-12-07T09:22:08;29.38;;;15.25;;
29686;SDS011;16599;47.078;15.536;2022-12-07T09:24:35;30.15;;;15.63;;
29686;SDS011;16599;47.078;15.536;2022-12-07T09:27:05;28.90;;;14.90;;
29686;SDS011;16599;47.078;15.536;2022-12-07T09:29:32;28.98;;;15.32;;
29686;SDS011;16599;47.078;15.536;2022-12-07T09:31:59;34.28;;;17.20;;
29686;SDS011;16599;47.078;15.536;2022-12-07T09:34:26;29.13;;;16.23;;
29686;SDS011;16599;47.078;15.536;2022-12-07T09:36:53;29.63;;;16.35;;
29686;SDS011;16599;47.078;15.536;2022-12-07T09:39:20;27.90;;;14.93;;
29686;SDS011;16599;47.078;15.536;2022-12-07T09:41:47;28.02;;;14.98;;
29686;SDS011;16599;47.078;15.536;2022-12-07T09:44:19;28.95;;;15.88;;
29686;SDS011;16599;47.078;15.536;2022-12-07T09:46:49;29.92;;;16.10;;
29686;SDS011;16599;47.078;15.536;2022-12-07T09:49:20;29.17;;;15.85;;
29686;SDS011;16599;47.078;15.536;2022-12-07T09:51:55;32.00;;;16.63;;
29686;SDS011;16599;47.078;15.536;2022-12-07T09:54:46;28.98;;;15.63;;
29686;SDS011;16599;47.078;15.536;2022-12-07T09:57:15;28.23;;;16.10;;
29686;SDS011;16599;47.078;15.536;2022-12-07T09:59:42;36.97;;;18.92;;
29686;SDS011;16599;47.078;15.536;2022-12-07T10:02:23;33.83;;;17.23;;
29686;SDS011;16599;47.078;15.536;2022-12-07T10:04:51;30.85;;;17.33;;
29686;SDS011;16599;47.078;15.536;2022-12-07T10:07:18;25.88;;;15.20;;
29686;SDS011;16599;47.078;15.536;2022-12-07T10:09:45;29.15;;;16.17;;
29686;SDS011;16599;47.078;15.536;2022-12-07T10:12:12;27.77;;;15.95;;
29686;SDS011;16599;47.078;15.536;2022-12-07T10:14:51;26.48;;;15.43;;
29686;SDS011;16599;47.078;15.536;2022-12-07T10:17:35;26.27;;;15.27;;
29686;SDS011;16599;47.078;15.536;2022-12-07T10:25:26;26.08;;;14.15;;
29686;SDS011;16599;47.078;15.536;2022-12-07T10:28:33;25.08;;;14.73;;
29686;SDS011;16599;47.078;15.536;2022-12-07T10:30:49;32.00;;;16.30;;
29686;SDS011;16599;47.078;15.536;2022-12-07T10:33:36;25.80;;;14.95;;
29686;SDS011;16599;47.078;15.536;2022-12-07T10:39:20;25.95;;;14.23;;
29686;SDS011;16599;47.078;15.536;2022-12-07T10:44:25;24.73;;;14.43;;
29686;SDS011;16599;47.078;15.536;2022-12-07T11:06:38;18.85;;;12.30;;
29686;SDS011;16599;47.078;15.536;2022-12-07T11:15:04;20.60;;;12.43;;
29686;SDS011;16599;47.078;15.536;2022-12-07T11:37:07;16.95;;;11.07;;
29686;SDS011;16599;47.078;15.536;2022-12-07T11:39:41;21.38;;;10.60;;
29686;SDS011;16599;47.078;15.536;2022-12-07T11:42:26;20.00;;;11.10;;
29686;SDS011;16599;47.078;15.536;2022-12-07T11:45:10;22.02;;;15.23;;
29686;SDS011;16599;47.078;15.536;2022-12-07T11:47:58;23.25;;;11.80;;
29686;SDS011;16599;47.078;15.536;2022-12-07T11:50:33;19.00;;;10.75;;
29686;SDS011;16599;47.078;15.536;2022-12-07T11:55:52;19.13;;;9.40;;
29686;SDS011;16599;47.078;15.536;2022-12-07T12:04:13;16.67;;;10.20;;
29686;SDS011;16599;47.078;15.536;2022-12-07T12:06:53;16.40;;;10.10;;
29686;SDS011;16599;47.078;15.536;2022-12-07T12:15:38;29.77;;;12.45;;
29686;SDS011;16599;47.078;15.536;2022-12-07T12:18:49;25.45;;;11.00;;
29686;SDS011;16599;47.078;15.536;2022-12-07T12:21:32;54.35;;;34.72;;
29686;SDS011;16599;47.078;15.536;2022-12-07T12:24:02;45.00;;;35.88;;
29686;SDS011;16599;47.078;15.536;2022-12-07T12:26:37;17.67;;;9.68;;
29686;SDS011;16599;47.078;15.536;2022-12-07T12:29:06;21.23;;;12.98;;
29686;SDS011;16599;47.078;15.536;2022-12-07T12:31:46;18.65;;;10.23;;
29686;SDS011;16599;47.078;15.536;2022-12-07T12:42:46;19.45;;;11.95;;
29686;SDS011;16599;47.078;15.536;2022-12-07T12:53:05;18.52;;;10.05;;
29686;SDS011;16599;47.078;15.536;2022-12-07T12:56:01;16.17;;;10.45;;
29686;SDS011;16599;47.078;15.536;2022-12-07T12:58:46;25.20;;;17.83;;
29686;SDS011;16599;47.078;15.536;2022-12-07T13:03:54;16.55;;;9.77;;
29686;SDS011;16599;47.078;15.536;2022-12-07T13:08:58;14.30;;;9.65;;
29686;SDS011;16599;47.078;15.536;2022-12-07T13:11:31;15.98;;;10.30;;
29686;SDS011;16599;47.078;15.536;2022-12-07T13:17:10;14.43;;;9.40;;
29686;SDS011;16599;47.078;15.536;2022-12-07T13:25:02;13.55;;;9.27;;
29686;SDS011;16599;47.078;15.536;2022-12-07T13:27:57;29.33;;;14.32;;
29686;SDS011;16599;47.078;15.536;2022-12-07T13:30:28;17.35;;;10.60;;
29686;SDS011;16599;47.078;15.536;2022-12-07T13:32:57;15.00;;;9.52;;
29686;SDS011;16599;47.078;15.536;2022-12-07T13:35:29;15.57;;;8.95;;
29686;SDS011;16599;47.078;15.536;2022-12-07T13:38:15;13.73;;;9.45;;
29686;SDS011;16599;47.078;15.536;2022-12-07T13:41:02;18.88;;;10.07;;
29686;SDS011;16599;47.078;15.536;2022-12-07T13:43:31;20.80;;;9.50;;
29686;SDS011;16599;47.078;15.536;2022-12-07T13:46:08;16.50;;;9.98;;
29686;SDS011;16599;47.078;15.536;2022-12-07T13:48:47;17.05;;;9.52;;
29686;SDS011;16599;47.078;15.536;2022-12-07T13:51:19;17.75;;;9.88;;
29686;SDS011;16599;47.078;15.536;2022-12-07T13:53:54;20.27;;;11.07;;
29686;SDS011;16599;47.078;15.536;2022-12-07T13:56:32;15.40;;;9.57;;
29686;SDS011;16599;47.078;15.536;2022-12-07T13:59:01;16.13;;;10.25;;
29686;SDS011;16599;47.078;15.536;2022-12-07T14:01:30;17.15;;;10.30;;
29686;SDS011;16599;47.078;15.536;2022-12-07T14:06:50;16.02;;;8.60;;
29686;SDS011;16599;47.078;15.536;2022-12-07T14:09:22;14.52;;;9.35;;
29686;SDS011;16599;47.078;15.536;2022-12-07T14:11:52;13.98;;;9.00;;
29686;SDS011;16599;47.078;15.536;2022-12-07T14:14:21;14.38;;;9.95;;
29686;SDS011;16599;47.078;15.536;2022-12-07T14:17:08;13.38;;;8.98;;
29686;SDS011;16599;47.078;15.536;2022-12-07T14:19:45;14.18;;;9.10;;
29686;SDS011;16599;47.078;15.536;2022-12-07T14:24:58;21.05;;;10.07;;
29686;SDS011;16599;47.078;15.536;2022-12-07T14:27:30;15.60;;;10.38;;
29686;SDS011;16599;47.078;15.536;2022-12-07T14:30:00;14.38;;;9.57;;
29686;SDS011;16599;47.078;15.536;2022-12-07T14:32:29;14.50;;;9.85;;
29686;SDS011;16599;47.078;15.536;2022-12-07T14:34:58;18.83;;;11.82;;
29686;SDS011;16599;47.078;15.536;2022-12-07T14:37:36;16.92;;;10.20;;
29686;SDS011;16599;47.078;15.536;2022-12-07T14:40:04;15.07;;;9.45;;
29686;SDS011;16599;47.078;15.536;2022-12-07T14:42:32;17.42;;;10.57;;
29686;SDS011;16599;47.078;15.536;2022-12-07T14:45:00;22.23;;;11.35;;
29686;SDS011;16599;47.078;15.536;2022-12-07T14:47:27;18.02;;;10.65;;
29686;SDS011;16599;47.078;15.536;2022-12-07T14:50:16;18.75;;;10.80;;
29686;SDS011;16599;47.078;15.536;2022-12-07T14:53:09;17.05;;;10.85;;
29686;SDS011;16599;47.078;15.536;2022-12-07T14:55:54;17.98;;;10.70;;
29686;SDS011;16599;47.078;15.536;2022-12-07T14:58:21;19.60;;;11.73;;
29686;SDS011;16599;47.078;15.536;2022-12-07T15:00:51;18.42;;;11.23;;
29686;SDS011;16599;47.078;15.536;2022-12-07T15:03:18;17.90;;;11.95;;
29686;SDS011;16599;47.078;15.536;2022-12-07T15:05:45;19.48;;;12.82;;
29686;SDS011;16599;47.078;15.536;2022-12-07T15:08:12;21.33;;;13.43;;
29686;SDS011;16599;47.078;15.536;2022-12-07T15:10:39;24.05;;;12.80;;
29686;SDS011;16599;47.078;15.536;2022-12-07T15:13:06;19.23;;;12.23;;
29686;SDS011;16599;47.078;15.536;2022-12-07T15:15:53;20.17;;;12.50;;
29686;SDS011;16599;47.078;15.536;2022-12-07T15:18:21;21.13;;;12.75;;
29686;SDS011;16599;47.078;15.536;2022-12-07T15:20:49;22.45;;;12.43;;
29686;SDS011;16599;47.078;15.536;2022-12-07T15:23:16;20.42;;;12.63;;
29686;SDS011;16599;47.078;15.536;2022-12-07T15:25:44;20.42;;;12.80;;
29686;SDS011;16599;47.078;15.536;2022-12-07T15:28:13;22.30;;;13.35;;
29686;SDS011;16599;47.078;15.536;2022-12-07T15:30:41;22.02;;;12.93;;
29686;SDS011;16599;47.078;15.536;2022-12-07T15:33:09;19.17;;;11.98;;
29686;SDS011;16599;47.078;15.536;2022-12-07T15:35:40;22.25;;;13.52;;
29686;SDS011;16599;47.078;15.536;2022-12-07T15:38:08;20.50;;;12.90;;
29686;SDS011;16599;47.078;15.536;2022-12-07T15:40:35;23.92;;;13.45;;
29686;SDS011;16599;47.078;15.536;2022-12-07T15:43:03;19.95;;;12.27;;
29686;SDS011;16599;47.078;15.536;2022-12-07T15:45:30;23.52;;;13.65;;
29686;SDS011;16599;47.078;15.536;2022-12-07T15:47:57;20.02;;;12.60;;
29686;SDS011;16599;47.078;15.536;2022-12-07T15:50:44;19.90;;;12.88;;
29686;SDS011;16599;47.078;15.536;2022-12-07T15:53:10;22.55;;;13.90;;
29686;SDS011;16599;47.078;15.536;2022-12-07T15:55:40;25.42;;;14.30;;
29686;SDS011;16599;47.078;15.536;2022-12-07T15:58:07;23.83;;;14.30;;
29686;SDS011;16599;47.078;15.536;2022-12-07T16:00:34;21.63;;;14.60;;
29686;SDS011;16599;47.078;15.536;2022-12-07T16:03:01;25.98;;;16.48;;
29686;SDS011;16599;47.078;15.536;2022-12-07T16:05:28;29.50;;;15.45;;
29686;SDS011;16599;47.078;15.536;2022-12-07T16:07:54;29.17;;;16.33;;
29686;SDS011;16599;47.078;15.536;2022-12-07T16:10:21;23.75;;;15.68;;
29686;SDS011;16599;47.078;15.536;2022-12-07T16:12:48;31.30;;;16.20;;
29686;SDS011;16599;47.078;15.536;2022-12-07T16:15:15;24.48;;;15.27;;
29686;SDS011;16599;47.078;15.536;2022-12-07T16:17:49;25.52;;;15.88;;
29686;SDS011;16599;47.078;15.536;2022-12-07T16:20:16;32.05;;;16.98;;
29686;SDS011;16599;47.078;15.536;2022-12-07T16:22:43;28.58;;;16.63;;
29686;SDS011;16599;47.078;15.536;2022-12-07T16:25:10;32.38;;;18.10;;
29686;SDS011;16599;47.078;15.536;2022-12-07T16:27:37;28.05;;;18.27;;
29686;SDS011;16599;47.078;15.536;2022-12-07T16:30:04;29.92;;;18.33;;
29686;SDS011;16599;47.078;15.536;2022-12-07T16:32:31;27.40;;;17.63;;
29686;SDS011;16599;47.078;15.536;2022-12-07T16:34:58;27.20;;;16.73;;
29686;SDS011;16599;47.078;15.536;2022-12-07T16:37:25;30.35;;;17.75;;
29686;SDS011;16599;47.078;15.536;2022-12-07T16:39:52;29.50;;;17.63;;
29686;SDS011;16599;47.078;15.536;2022-12-07T16:42:19;30.45;;;17.10;;
29686;SDS011;16599;47.078;15.536;2022-12-07T16:44:46;29.10;;;17.65;;
29686;SDS011;16599;47.078;15.536;2022-12-07T16:47:13;44.33;;;23.45;;
29686;SDS011;16599;47.078;15.536;2022-12-07T16:49:40;30.95;;;18.83;;
29686;SDS011;16599;47.078;15.536;2022-12-07T16:52:08;32.05;;;19.73;;